Treichlers, Pennsylvania
Current Conditions -  °F | °C
As of 4:51 AM on Thursday 29 Jan 2015 (Local Time) from KABE Reporting Station
Clear Clear  
Wind Chill: 13°   Ceiling: Unl
Heat Index: 13°   Visibility: 10mi
Dew Point:   Wind: 3mph
Humidity: 65%   Direction: 240°WSW
Pressure: 30.3"   Gusts: NA
Location:  40.73°N, 75.54°W
Report Text: KABE 290951Z 24003KT 10SM CLR M11/M16 A3030 RMK AO2 SLP269 T11061161
Loading
Personal Weather Stations






























Interactive Weather Map New forecast layout! Learn more

10-Day Weather Forecast

Advertisements
Track Severe Weather on mobile